TAF KRYY
KRYY 081742Z 0818/0918 32008KT P6SM BKN007 OVC020 FM081900 31008KT P6SM SCT020 FM082200 32008KT P6SM FEW060 FEW250 FM091200 07003KT P6SM SCT045 SCT250=
METAR KRYY
WC KRYY
WS KRYY
WV KRYY